createdAt,value
2018-10-21T00:00:09.923Z,92.00
2018-10-21T00:02:37.945Z,92.10
2018-10-21T00:05:07.339Z,92.50
2018-10-21T00:07:35.508Z,92.20
2018-10-21T00:10:04.482Z,91.80
2018-10-21T00:12:32.442Z,91.50
2018-10-21T00:15:00.396Z,91.20
2018-10-21T00:17:28.365Z,91.00
2018-10-21T00:19:56.425Z,91.50
2018-10-21T00:22:24.477Z,92.10
2018-10-21T00:24:52.644Z,93.10
2018-10-21T00:27:20.687Z,93.60
2018-10-21T00:29:48.592Z,93.20
2018-10-21T00:32:16.587Z,92.60
2018-10-21T00:34:44.658Z,92.40
2018-10-21T00:37:12.693Z,92.10
2018-10-21T00:39:40.584Z,92.30
2018-10-21T00:42:08.588Z,92.40
2018-10-21T00:44:36.489Z,92.00
2018-10-21T00:47:06.582Z,91.60
2018-10-21T00:49:34.733Z,91.30
2018-10-21T00:52:02.744Z,91.60
2018-10-21T00:54:30.741Z,91.80
2018-10-21T00:56:58.634Z,92.40
2018-10-21T00:59:26.487Z,92.60
2018-10-21T01:01:54.624Z,93.10
2018-10-21T01:04:22.609Z,93.20
2018-10-21T01:06:50.269Z,93.00
2018-10-21T01:09:17.971Z,93.20
2018-10-21T01:11:45.503Z,93.00
2018-10-21T01:14:13.102Z,93.30
2018-10-21T01:16:40.759Z,93.50
2018-10-21T01:19:09.270Z,93.70
2018-10-21T01:21:36.948Z,93.50
2018-10-21T01:24:05.314Z,93.40
2018-10-21T01:26:32.941Z,93.80
2018-10-21T01:29:00.675Z,93.60
2018-10-21T01:31:28.514Z,93.50
2018-10-21T01:33:56.312Z,93.40
2018-10-21T01:36:24.239Z,93.50
2018-10-21T01:38:52.081Z,93.80
2018-10-21T01:41:20.068Z,93.70
2018-10-21T01:43:48.398Z,93.90
2018-10-21T01:46:16.245Z,94.10
2018-10-21T01:48:44.148Z,94.50
2018-10-21T01:51:12.246Z,94.10
2018-10-21T01:53:40.073Z,94.10
2018-10-21T01:56:08.092Z,94.00
2018-10-21T01:58:36.099Z,94.00
2018-10-21T02:01:04.082Z,93.60
2018-10-21T02:03:31.943Z,93.90
2018-10-21T02:05:59.870Z,93.60
2018-10-21T02:08:28.050Z,93.90
2018-10-21T02:10:56.103Z,93.60
2018-10-21T02:13:24.098Z,93.90
2018-10-21T02:15:51.961Z,94.50
2018-10-21T02:18:19.889Z,94.50
2018-10-21T02:20:48.066Z,94.60
2018-10-21T02:23:16.261Z,94.60
2018-10-21T02:25:44.242Z,95.00
2018-10-21T02:28:12.264Z,95.00
2018-10-21T02:30:40.237Z,95.20
2018-10-21T02:33:08.429Z,95.00
2018-10-21T02:35:36.344Z,94.40
2018-10-21T02:38:04.818Z,93.80
2018-10-21T02:41:43.412Z,93.80
2018-10-21T02:44:13.024Z,93.70
2018-10-21T02:46:41.745Z,94.00
2018-10-21T02:49:10.556Z,94.40
2018-10-21T02:51:38.611Z,94.10
2018-10-21T02:54:07.702Z,94.50
2018-10-21T02:56:35.581Z,94.50
2018-10-21T02:59:03.591Z,94.20
2018-10-21T03:01:31.670Z,94.20
2018-10-21T03:03:59.602Z,94.00
2018-10-21T03:06:27.535Z,94.00
2018-10-21T03:08:58.919Z,94.10
2018-10-21T03:11:26.874Z,94.10
2018-10-21T03:13:54.856Z,94.10
2018-10-21T03:16:22.825Z,93.80
2018-10-21T03:18:50.793Z,93.90
2018-10-21T03:21:18.788Z,94.10
2018-10-21T03:23:46.689Z,94.20
2018-10-21T03:26:14.611Z,94.40
2018-10-21T03:28:42.492Z,94.60
2018-10-21T03:31:10.588Z,94.80
2018-10-21T03:33:38.529Z,95.20
2018-10-21T03:36:06.664Z,95.10
2018-10-21T03:38:34.615Z,95.20
2018-10-21T03:41:02.629Z,95.20
2018-10-21T03:43:30.552Z,95.10
2018-10-21T03:45:58.785Z,94.80
2018-10-21T03:48:26.710Z,94.60
2018-10-21T03:50:54.625Z,94.40
2018-10-21T03:53:22.486Z,93.90
2018-10-21T03:55:50.456Z,93.90
2018-10-21T03:58:18.547Z,94.00
2018-10-21T04:00:46.537Z,94.20
2018-10-21T04:03:14.550Z,94.70
2018-10-21T04:05:42.489Z,94.60
2018-10-21T04:08:10.419Z,94.70
2018-10-21T04:10:38.414Z,94.40
2018-10-21T04:13:06.430Z,94.40
2018-10-21T04:15:34.532Z,94.40
2018-10-21T04:18:02.534Z,94.60
2018-10-21T04:20:30.481Z,94.90
2018-10-21T04:23:00.729Z,94.80
2018-10-21T04:25:29.963Z,94.80
2018-10-21T04:27:58.904Z,95.00
2018-10-21T04:30:28.754Z,94.20
2018-10-21T04:33:04.592Z,94.10
2018-10-21T04:35:33.086Z,93.50
2018-10-21T04:40:17.404Z,93.30
2018-10-21T04:42:45.781Z,93.40
2018-10-21T04:45:16.935Z,94.10
2018-10-21T04:47:45.023Z,94.40
2018-10-21T04:50:13.433Z,94.40
2018-10-21T04:52:41.439Z,94.20
2018-10-21T04:55:10.714Z,94.60
2018-10-21T04:57:40.310Z,94.30
2018-10-21T05:00:09.865Z,94.50
2018-10-21T05:02:37.867Z,94.00
2018-10-21T05:05:07.318Z,93.80
2018-10-21T05:07:35.689Z,93.60
2018-10-21T05:10:04.378Z,93.60
2018-10-21T05:12:32.323Z,93.20
2018-10-21T05:15:00.322Z,93.80
2018-10-21T05:17:28.243Z,94.00
2018-10-21T05:19:56.293Z,94.20
2018-10-21T05:22:24.104Z,94.20
2018-10-21T05:24:52.202Z,94.50
2018-10-21T05:27:20.102Z,94.20
2018-10-21T05:29:48.205Z,93.60
2018-10-21T05:32:16.145Z,93.60
2018-10-21T05:34:44.174Z,94.00
2018-10-21T05:37:12.419Z,94.20
2018-10-21T05:39:40.551Z,94.30
2018-10-21T05:42:08.519Z,94.50
2018-10-21T05:44:36.511Z,94.90
2018-10-21T05:47:04.915Z,95.20
2018-10-21T05:49:33.049Z,95.00
2018-10-21T05:52:01.044Z,94.90
2018-10-21T05:54:29.111Z,94.50
2018-10-21T05:57:06.648Z,94.10
2018-10-21T05:59:34.757Z,93.70
2018-10-21T06:02:02.793Z,93.70
2018-10-21T06:04:30.798Z,93.70
2018-10-21T06:06:58.728Z,94.30
2018-10-21T06:09:26.823Z,93.80
2018-10-21T06:11:54.803Z,94.00
2018-10-21T06:14:23.007Z,94.00
2018-10-21T06:16:57.183Z,94.50
2018-10-21T06:19:30.755Z,94.30
2018-10-21T06:21:58.775Z,94.30
2018-10-21T06:24:27.089Z,93.90
2018-10-21T06:26:56.410Z,93.80
2018-10-21T06:29:24.370Z,93.70
2018-10-21T06:31:52.423Z,94.10
2018-10-21T06:34:20.412Z,93.80
2018-10-21T06:36:48.420Z,93.70
2018-10-21T06:39:16.402Z,93.30
2018-10-21T06:41:44.381Z,93.00
2018-10-21T06:44:12.674Z,93.50
2018-10-21T06:46:40.660Z,93.00
2018-10-21T06:49:08.729Z,92.30
2018-10-21T06:51:36.726Z,91.90
2018-10-21T06:54:13.082Z,91.50
2018-10-21T06:56:41.235Z,91.20
2018-10-21T06:59:09.178Z,91.00
2018-10-21T07:01:37.459Z,91.20
2018-10-21T07:04:05.996Z,91.60
2018-10-21T07:06:33.708Z,91.60
2018-10-21T07:09:04.188Z,91.00
2018-10-21T07:11:31.783Z,90.60
2018-10-21T07:13:59.421Z,90.30
2018-10-21T07:16:27.179Z,90.60
2018-10-21T07:18:54.763Z,90.00
2018-10-21T07:21:22.464Z,90.10
2018-10-21T07:23:50.496Z,90.00
2018-10-21T07:26:18.160Z,90.00
2018-10-21T07:28:45.839Z,90.10
2018-10-21T07:31:13.614Z,90.30
2018-10-21T07:33:41.337Z,90.60
2018-10-21T07:36:09.336Z,90.70
2018-10-21T07:38:37.020Z,90.90
2018-10-21T07:41:05.056Z,90.90
2018-10-21T07:43:32.766Z,91.00
2018-10-21T07:46:00.613Z,91.10
2018-10-21T07:48:28.667Z,91.20
2018-10-21T07:50:56.530Z,91.50
2018-10-21T07:53:24.386Z,91.30
2018-10-21T07:55:52.246Z,91.00
2018-10-21T07:58:19.875Z,90.90
2018-10-21T08:00:47.580Z,90.20
2018-10-21T08:03:15.163Z,88.10
2018-10-21T08:05:54.067Z,87.40
2018-10-21T08:08:25.521Z,87.10
2018-10-21T08:10:53.182Z,87.30
2018-10-21T08:13:22.359Z,86.50
2018-10-21T08:15:50.211Z,82.80
2018-10-21T08:18:17.930Z,82.50
2018-10-21T08:20:46.894Z,82.20
2018-10-21T08:23:16.101Z,79.80
2018-10-21T08:25:44.901Z,78.90
2018-10-21T08:28:12.716Z,79.40
2018-10-21T08:30:40.461Z,78.40
2018-10-21T08:33:08.358Z,79.20
2018-10-21T08:35:36.082Z,76.20
2018-10-21T08:38:04.332Z,76.20
2018-10-21T08:40:31.953Z,74.90
2018-10-21T08:42:59.649Z,73.90
2018-10-21T08:45:27.275Z,71.80
2018-10-21T08:47:54.879Z,71.70
2018-10-21T08:50:22.585Z,72.70
2018-10-21T08:52:50.705Z,72.80
2018-10-21T08:55:18.689Z,72.60
2018-10-21T08:57:46.309Z,73.20
2018-10-21T09:00:16.088Z,72.60
2018-10-21T09:02:44.012Z,72.80
2018-10-21T09:05:14.110Z,72.20
2018-10-21T09:07:42.368Z,74.10
2018-10-21T09:10:11.631Z,72.60
2018-10-21T09:12:39.654Z,74.20
2018-10-21T09:15:10.477Z,74.90
2018-10-21T09:17:38.498Z,75.10
2018-10-21T09:20:09.370Z,73.80
2018-10-21T09:22:37.281Z,73.60
2018-10-21T09:25:05.747Z,72.20
2018-10-21T09:27:41.045Z,68.60
2018-10-21T09:30:11.409Z,66.50
2018-10-21T09:32:39.375Z,66.40
2018-10-21T09:35:08.944Z,66.60
2018-10-21T09:37:36.769Z,66.40
2018-10-21T09:40:05.894Z,65.40
2018-10-21T09:42:33.677Z,65.30
2018-10-21T09:45:01.667Z,63.20
2018-10-21T09:47:29.931Z,62.50
2018-10-21T09:49:58.314Z,63.10
2018-10-21T09:52:26.756Z,63.80
2018-10-21T09:55:05.677Z,63.80
2018-10-21T09:57:33.788Z,62.50
2018-10-21T10:00:02.025Z,62.50
2018-10-21T10:02:35.592Z,62.40
2018-10-21T10:05:03.673Z,62.50
2018-10-21T10:07:31.915Z,62.90
2018-10-21T10:10:00.044Z,62.20
2018-10-21T10:12:28.206Z,62.00
2018-10-21T10:14:56.395Z,61.90
2018-10-21T10:17:25.395Z,60.80
2018-10-21T10:19:53.477Z,60.40
2018-10-21T10:22:21.667Z,61.30
2018-10-21T10:24:50.390Z,63.00
2018-10-21T10:27:18.422Z,64.60
2018-10-21T10:29:53.507Z,63.20
2018-10-21T10:32:24.433Z,63.10
2018-10-21T10:34:52.865Z,62.60
2018-10-21T10:37:21.173Z,60.30
2018-10-21T10:39:49.317Z,58.40
2018-10-21T10:42:17.501Z,56.90
2018-10-21T10:44:45.736Z,57.60
2018-10-21T10:47:13.837Z,56.90
2018-10-21T10:49:42.130Z,56.80
2018-10-21T10:52:10.315Z,58.60
2018-10-21T10:54:38.846Z,56.60
2018-10-21T10:57:07.043Z,58.00
2018-10-21T10:59:35.581Z,56.90
2018-10-21T11:02:03.569Z,55.80
2018-10-21T11:04:31.843Z,55.90
2018-10-21T11:07:00.040Z,53.70
2018-10-21T11:09:28.085Z,52.80
2018-10-21T11:11:56.184Z,54.50
2018-10-21T11:14:24.237Z,52.20
2018-10-21T11:16:52.466Z,53.50
2018-10-21T11:19:23.251Z,53.30
2018-10-21T11:21:51.876Z,54.20
2018-10-21T11:24:20.005Z,55.30
2018-10-21T11:26:48.219Z,53.30
2018-10-21T11:29:16.468Z,53.60
2018-10-21T11:31:44.721Z,52.20
2018-10-21T11:34:13.176Z,50.20
2018-10-21T11:36:41.561Z,53.10
2018-10-21T11:39:10.321Z,54.00
2018-10-21T11:41:38.375Z,53.10
2018-10-21T11:44:06.519Z,49.20
2018-10-21T11:46:34.793Z,49.20
2018-10-21T11:49:03.114Z,48.40
2018-10-21T11:51:31.394Z,48.00
2018-10-21T11:53:59.690Z,48.20
2018-10-21T11:56:27.844Z,49.80
2018-10-21T11:58:55.942Z,50.40
2018-10-21T12:01:24.127Z,50.80
2018-10-21T12:03:52.451Z,51.50
2018-10-21T12:06:20.636Z,49.00
2018-10-21T12:08:48.759Z,48.20
2018-10-21T12:11:17.016Z,45.50
2018-10-21T12:13:45.019Z,45.70
2018-10-21T12:16:13.421Z,45.70
2018-10-21T12:18:41.499Z,47.80
2018-10-21T12:21:09.598Z,45.00
2018-10-21T12:23:37.729Z,45.70
2018-10-21T12:26:05.957Z,47.90
2018-10-21T12:28:34.047Z,45.40
2018-10-21T12:31:02.219Z,46.20
2018-10-21T12:33:34.662Z,47.20
2018-10-21T12:36:02.757Z,47.40
2018-10-21T12:38:30.835Z,49.70
2018-10-21T12:40:58.968Z,47.20
2018-10-21T12:43:27.037Z,48.60
2018-10-21T12:45:55.238Z,48.90
2018-10-21T12:48:23.509Z,47.90
2018-10-21T12:50:51.984Z,47.20
2018-10-21T12:53:20.115Z,45.20
2018-10-21T12:55:50.036Z,43.90
2018-10-21T12:58:18.932Z,43.30
2018-10-21T13:00:47.317Z,44.10
2018-10-21T13:03:15.435Z,45.30
2018-10-21T13:05:43.929Z,44.70
2018-10-21T13:08:12.218Z,43.20
2018-10-21T13:10:40.198Z,42.90
2018-10-21T13:13:08.327Z,44.00
2018-10-21T13:15:36.236Z,41.80
2018-10-21T13:18:05.174Z,43.30
2018-10-21T13:20:33.539Z,45.00
2018-10-21T13:23:01.636Z,43.20
2018-10-21T13:25:29.915Z,44.50
2018-10-21T13:27:58.018Z,42.30
2018-10-21T13:30:26.012Z,43.00
2018-10-21T13:32:53.992Z,41.40
2018-10-21T13:35:22.490Z,41.50
2018-10-21T13:37:52.276Z,42.10
2018-10-21T13:40:21.653Z,42.30
2018-10-21T13:42:49.400Z,43.20
2018-10-21T13:45:17.043Z,43.30
2018-10-21T13:47:44.911Z,45.10
2018-10-21T13:50:12.608Z,43.20
2018-10-21T13:52:40.359Z,43.50
2018-10-21T13:55:08.627Z,44.70
2018-10-21T13:57:39.061Z,44.40
2018-10-21T14:00:07.827Z,46.10
2018-10-21T14:02:35.685Z,44.70
2018-10-21T14:05:03.537Z,43.70
2018-10-21T14:07:32.756Z,44.40
2018-10-21T14:10:00.413Z,44.00
2018-10-21T14:12:28.056Z,44.50
2018-10-21T14:14:56.030Z,44.00
2018-10-21T14:17:23.672Z,43.40
2018-10-21T14:19:51.407Z,43.60
2018-10-21T14:22:19.209Z,44.40
2018-10-21T14:24:47.149Z,45.30
2018-10-21T14:27:14.744Z,45.00
2018-10-21T14:29:42.402Z,44.90
2018-10-21T14:32:10.206Z,45.30
2018-10-21T14:34:37.885Z,44.90
2018-10-21T14:37:06.538Z,44.40
2018-10-21T14:39:36.167Z,44.50
2018-10-21T14:42:04.252Z,43.40
2018-10-21T14:44:32.084Z,43.60
2018-10-21T14:46:59.907Z,43.70
2018-10-21T14:49:27.596Z,44.10
2018-10-21T14:51:55.601Z,43.60
2018-10-21T14:54:23.335Z,44.70
2018-10-21T14:56:51.107Z,43.60
2018-10-21T14:59:18.793Z,43.90
2018-10-21T15:01:46.492Z,44.70
2018-10-21T15:04:14.277Z,45.10
2018-10-21T15:06:42.058Z,46.10
2018-10-21T15:09:11.649Z,46.40
2018-10-21T15:11:39.838Z,46.10
2018-10-21T15:14:07.809Z,47.20
2018-10-21T15:16:36.568Z,47.70
2018-10-21T15:19:04.525Z,48.00
2018-10-21T15:21:32.424Z,48.40
2018-10-21T15:24:00.704Z,48.20
2018-10-21T15:26:28.670Z,49.00
2018-10-21T15:28:56.658Z,49.50
2018-10-21T15:31:24.516Z,49.90
2018-10-21T15:33:52.812Z,49.70
2018-10-21T15:36:20.512Z,49.70
2018-10-21T15:38:48.308Z,50.30
2018-10-21T15:41:16.317Z,51.10
2018-10-21T15:43:44.089Z,51.50
2018-10-21T15:46:17.710Z,51.50
2018-10-21T15:48:45.805Z,52.00
2018-10-21T15:51:13.580Z,52.50
2018-10-21T15:53:41.469Z,52.60
2018-10-21T15:56:09.489Z,53.10
2018-10-21T15:58:37.145Z,53.70
2018-10-21T16:01:05.071Z,53.60
2018-10-21T16:03:34.359Z,53.80
2018-10-21T16:06:02.251Z,54.10
2018-10-21T16:08:29.979Z,54.70
2018-10-21T16:10:57.602Z,54.50
2018-10-21T16:13:25.829Z,54.90
2018-10-21T16:15:53.608Z,55.40
2018-10-21T16:18:21.268Z,55.40
2018-10-21T16:20:49.259Z,55.70
2018-10-21T16:23:17.256Z,56.20
2018-10-21T16:25:45.036Z,56.20
2018-10-21T16:28:13.304Z,56.70
2018-10-21T16:30:41.019Z,57.20
2018-10-21T16:33:08.745Z,57.60
2018-10-21T16:35:36.648Z,58.20
2018-10-21T16:38:05.568Z,58.20
2018-10-21T16:40:33.458Z,58.40
2018-10-21T16:43:01.195Z,59.10
2018-10-21T16:45:28.896Z,59.60
2018-10-21T16:47:56.748Z,60.10
2018-10-21T16:50:24.594Z,60.70
2018-10-21T16:52:53.140Z,61.10
2018-10-21T16:55:21.493Z,61.60
2018-10-21T16:57:49.273Z,61.90
2018-10-21T17:00:18.200Z,62.30
2018-10-21T17:02:46.069Z,62.60
2018-10-21T17:05:13.829Z,62.80
2018-10-21T17:07:41.495Z,64.30
2018-10-21T17:10:10.499Z,65.00
2018-10-21T17:12:38.450Z,65.50
2018-10-21T17:15:07.409Z,65.70
2018-10-21T17:17:35.410Z,66.60
2018-10-21T17:20:03.871Z,67.00
2018-10-21T17:22:32.331Z,67.50
2018-10-21T17:25:01.002Z,68.50
2018-10-21T17:27:29.307Z,69.40
2018-10-21T17:29:57.714Z,69.50
2018-10-21T17:32:25.700Z,69.90
2018-10-21T17:34:53.895Z,71.10
2018-10-21T17:37:21.737Z,71.40
2018-10-21T17:39:49.745Z,71.50
2018-10-21T17:42:17.546Z,71.50
2018-10-21T17:44:45.616Z,72.10
2018-10-21T17:47:13.551Z,72.10
2018-10-21T17:49:41.786Z,72.30
2018-10-21T17:52:10.068Z,72.60
2018-10-21T17:54:37.751Z,73.90
2018-10-21T17:57:05.873Z,74.60
2018-10-21T17:59:34.022Z,75.50
2018-10-21T18:02:01.737Z,76.10
2018-10-21T18:04:29.667Z,76.80
2018-10-21T18:06:57.657Z,77.90
2018-10-21T18:09:25.675Z,79.00
2018-10-21T18:11:53.551Z,79.10
2018-10-21T18:14:21.475Z,79.40
2018-10-21T18:16:49.219Z,78.50
2018-10-21T18:19:17.091Z,77.50
2018-10-21T18:21:44.715Z,77.50
2018-10-21T18:24:12.722Z,78.20
2018-10-21T18:26:40.561Z,78.60
2018-10-21T18:29:08.416Z,78.90
2018-10-21T18:31:36.188Z,79.00
2018-10-21T18:34:03.965Z,79.20
2018-10-21T18:36:31.795Z,80.10
2018-10-21T18:38:59.610Z,80.50
2018-10-21T18:41:27.393Z,80.80
2018-10-21T18:43:55.875Z,80.70
2018-10-21T18:46:23.565Z,80.90
2018-10-21T18:48:51.397Z,81.50
2018-10-21T18:51:19.395Z,82.40
2018-10-21T18:53:47.491Z,82.60
2018-10-21T18:56:15.170Z,82.80
2018-10-21T18:58:42.954Z,82.80
2018-10-21T19:01:10.593Z,82.70
2018-10-21T19:03:38.295Z,82.40
2018-10-21T19:06:05.973Z,82.90
2018-10-21T19:08:33.791Z,82.20
2018-10-21T19:11:01.504Z,82.00
2018-10-21T19:13:29.314Z,83.10
2018-10-21T19:15:56.961Z,83.60
2018-10-21T19:18:24.681Z,83.80
2018-10-21T19:20:52.800Z,83.90
2018-10-21T19:23:20.497Z,84.60
2018-10-21T19:25:48.338Z,84.90
2018-10-21T19:28:16.133Z,85.80
2018-10-21T19:30:43.909Z,86.10
2018-10-21T19:33:11.567Z,86.60
2018-10-21T19:35:39.380Z,87.20
2018-10-21T19:38:07.468Z,87.30
2018-10-21T19:43:03.245Z,87.40
2018-10-21T19:45:31.266Z,88.10
2018-10-21T19:47:59.338Z,88.70
2018-10-21T19:50:27.539Z,87.30
2018-10-21T19:52:55.594Z,86.20
2018-10-21T19:55:23.681Z,86.60
2018-10-21T19:57:51.800Z,87.30
2018-10-21T20:00:20.139Z,87.50
2018-10-21T20:02:48.332Z,86.10
2018-10-21T20:05:16.428Z,86.00
2018-10-21T20:07:44.926Z,87.10
2018-10-21T20:10:14.369Z,87.50
2018-10-21T20:12:42.337Z,87.70
2018-10-21T20:15:11.354Z,87.70
2018-10-21T20:17:40.112Z,87.50
2018-10-21T20:20:09.511Z,87.30
2018-10-21T20:22:37.653Z,88.50
2018-10-21T20:25:07.048Z,89.20
2018-10-21T20:27:35.162Z,89.40
2018-10-21T20:30:03.685Z,90.50
2018-10-21T20:32:32.527Z,90.10
2018-10-21T20:35:00.554Z,90.40
2018-10-21T20:37:28.998Z,89.90
2018-10-21T20:39:57.323Z,89.20
2018-10-21T20:42:25.788Z,89.90
2018-10-21T20:44:54.097Z,89.70
2018-10-21T20:47:23.863Z,90.50
2018-10-21T20:49:51.876Z,90.80
2018-10-21T20:52:19.883Z,90.80
2018-10-21T20:54:48.903Z,90.80
2018-10-21T20:57:16.948Z,90.70
2018-10-21T20:59:46.099Z,91.60
2018-10-21T21:02:14.987Z,92.10
2018-10-21T21:04:43.197Z,91.70
2018-10-21T21:07:12.043Z,91.40
2018-10-21T21:09:40.663Z,90.80
2018-10-21T21:12:08.790Z,88.40
2018-10-21T21:14:36.838Z,86.90
2018-10-21T21:17:05.304Z,84.50
2018-10-21T21:19:33.677Z,85.00
2018-10-21T21:22:02.028Z,86.30
2018-10-21T21:24:30.080Z,87.40
2018-10-21T21:26:58.111Z,89.10
2018-10-21T21:29:26.094Z,89.00
2018-10-21T21:31:54.227Z,88.90
2018-10-21T21:34:22.218Z,90.60
2018-10-21T21:36:50.307Z,91.00
2018-10-21T21:39:18.308Z,92.00
2018-10-21T21:41:46.901Z,90.10
2018-10-21T21:44:14.788Z,89.60
2018-10-21T21:46:43.370Z,90.10
2018-10-21T21:49:12.306Z,90.70
2018-10-21T21:51:40.430Z,90.40
2018-10-21T21:54:11.051Z,88.80
2018-10-21T21:56:39.510Z,90.20
2018-10-21T21:59:08.076Z,85.70
2018-10-21T22:01:36.131Z,87.60
2018-10-21T22:04:04.256Z,89.70
2018-10-21T22:06:32.178Z,88.20
2018-10-21T22:09:00.258Z,88.40
2018-10-21T22:11:28.575Z,90.70
2018-10-21T22:13:56.477Z,86.50
2018-10-21T22:16:24.534Z,85.00
2018-10-21T22:18:52.641Z,88.10
2018-10-21T22:21:20.687Z,88.30
2018-10-21T22:23:48.724Z,86.90
2018-10-21T22:26:16.725Z,89.20
2018-10-21T22:28:44.733Z,84.10
2018-10-21T22:31:12.917Z,85.20
2018-10-21T22:33:40.854Z,81.10
2018-10-21T22:36:09.109Z,82.40
2018-10-21T22:38:36.989Z,82.80
2018-10-21T22:41:04.937Z,83.70
2018-10-21T22:43:32.963Z,84.30
2018-10-21T22:46:01.932Z,85.20
2018-10-21T22:48:33.430Z,85.50
2018-10-21T22:51:01.739Z,84.50
2018-10-21T22:53:30.128Z,85.40
2018-10-21T22:55:57.987Z,85.60
2018-10-21T22:58:26.024Z,86.00
2018-10-21T23:00:54.537Z,86.60
2018-10-21T23:03:22.598Z,88.10
2018-10-21T23:05:50.574Z,89.30
2018-10-21T23:08:18.577Z,90.00
2018-10-21T23:10:46.573Z,90.20
2018-10-21T23:13:14.724Z,90.20
2018-10-21T23:15:42.773Z,90.40
2018-10-21T23:18:10.707Z,90.30
2018-10-21T23:20:38.780Z,90.70
2018-10-21T23:23:06.904Z,91.00
2018-10-21T23:25:34.914Z,92.40
2018-10-21T23:28:02.940Z,92.50
2018-10-21T23:30:31.012Z,92.00
2018-10-21T23:32:59.085Z,92.00
2018-10-21T23:35:27.241Z,92.00
2018-10-21T23:37:55.252Z,91.20
2018-10-21T23:40:23.509Z,91.70
2018-10-21T23:42:51.662Z,91.40
2018-10-21T23:45:19.678Z,89.60
2018-10-21T23:47:47.800Z,89.50
2018-10-21T23:50:15.797Z,90.60
2018-10-21T23:52:43.796Z,91.80
2018-10-21T23:55:11.730Z,91.50
2018-10-21T23:57:39.708Z,91.10
